Time;durP1;ratioP1;P1;durP2;ratioP2;P2;SDS_P1;SDS_P2;PMS_P1;PMS_P2;Temp;Humidity;BMP_temperature;BMP_pressure;BME280_temperature;BME280_humidity;BME280_pressure;Samples;Min_cycle;Max_cycle;Signal;HPM_P1;HPM_P2
2022/06/14 00:01:19;;;;;;;6.77;2.23;;;10.80;99.90;;;;;;5012767;28;20237;-84
2022/06/14 00:03:46;;;;;;;5.77;2.40;;;10.80;99.90;;;;;;5031188;28;20202;-84
2022/06/14 00:06:16;;;;;;;6.00;2.57;;;10.80;99.90;;;;;;5012632;28;20217;-84
2022/06/14 00:08:43;;;;;;;6.73;2.30;;;10.70;99.90;;;;;;5014036;28;20205;-84
2022/06/14 00:11:14;;;;;;;6.47;2.57;;;10.70;99.90;;;;;;5016705;28;20265;-84
2022/06/14 00:13:41;;;;;;;6.20;2.80;;;10.60;99.90;;;;;;5021317;28;20213;-84
2022/06/14 00:16:10;;;;;;;9.17;2.60;;;10.60;99.90;;;;;;5014326;28;20232;-84
2022/06/14 00:18:37;;;;;;;9.93;2.70;;;10.60;99.90;;;;;;5015175;28;20232;-84
2022/06/14 00:21:04;;;;;;;8.63;2.77;;;10.60;99.90;;;;;;5012677;28;20257;-84
2022/06/14 00:23:32;;;;;;;6.73;2.60;;;10.60;99.90;;;;;;5014222;28;20213;-84
2022/06/14 00:26:00;;;;;;;6.00;2.80;;;10.50;99.90;;;;;;5034680;28;20205;-84
2022/06/14 00:28:31;;;;;;;8.93;2.47;;;10.50;99.90;;;;;;5031366;28;20217;-84
2022/06/14 00:31:00;;;;;;;7.53;2.40;;;10.50;99.90;;;;;;4993034;28;20222;-84
2022/06/14 00:33:27;;;;;;;6.97;2.87;;;10.40;99.90;;;;;;5026019;28;20700;-84
2022/06/14 00:35:59;;;;;;;7.77;2.73;;;10.40;99.90;;;;;;5013603;28;20305;-84
2022/06/14 00:38:26;;;;;;;6.87;2.57;;;10.30;99.90;;;;;;5026733;28;20213;-84
2022/06/14 00:40:56;;;;;;;8.00;2.77;;;10.30;99.90;;;;;;5021159;28;20284;-84
2022/06/14 00:43:23;;;;;;;7.27;2.70;;;10.30;99.90;;;;;;5032228;28;20236;-84
2022/06/14 00:46:27;;;;;;;10.27;2.83;;;10.20;99.90;;;;;;5036237;28;20193;-84
2022/06/14 00:49:04;;;;;;;9.07;3.17;;;10.20;99.90;;;;;;4965430;28;20217;-84
2022/06/14 00:51:37;;;;;;;7.97;2.90;;;10.10;99.90;;;;;;4977904;28;20295;-84
2022/06/14 00:54:11;;;;;;;8.33;3.10;;;10.10;99.90;;;;;;4990099;28;20218;-84
2022/06/14 00:56:43;;;;;;;7.33;2.90;;;10.00;99.90;;;;;;5023484;28;20205;-85
2022/06/14 00:59:12;;;;;;;;;;;10.00;99.90;;;;;;5024542;28;20137;-84
2022/06/14 01:01:42;;;;;;;;;;;10.00;99.90;;;;;;5040438;28;19925;-84
2022/06/14 01:04:13;;;;;;;7.83;2.90;;;10.00;99.90;;;;;;5023335;28;20033;-83
2022/06/14 01:06:48;;;;;;;;;;;10.00;99.90;;;;;;5022923;28;20235;-84
2022/06/14 01:09:17;;;;;;;;;;;10.00;99.90;;;;;;5050812;28;19974;-84
2022/06/14 01:11:45;;;;;;;;;;;10.00;99.90;;;;;;5034287;28;19936;-84
2022/06/14 01:14:15;;;;;;;;;;;9.90;99.90;;;;;;5018594;28;19921;-84
2022/06/14 01:16:44;;;;;;;;;;;9.90;99.90;;;;;;5043485;28;19925;-84
2022/06/14 01:19:14;;;;;;;;;;;10.00;99.90;;;;;;5031615;28;20006;-84
2022/06/14 01:21:41;;;;;;;;;;;10.00;99.90;;;;;;5027051;28;20019;-84
2022/06/14 01:24:09;;;;;;;;;;;10.00;99.90;;;;;;5021974;28;19924;-84
2022/06/14 01:26:37;;;;;;;;;;;10.00;99.90;;;;;;5018001;28;19921;-85
2022/06/14 01:29:05;;;;;;;;;;;10.00;99.90;;;;;;5036104;28;19925;-84
2022/06/14 01:31:32;;;;;;;;;;;10.00;99.90;;;;;;5035125;28;19925;-84
2022/06/14 01:34:02;;;;;;;5.50;3.00;;;9.90;99.90;;;;;;5037285;28;20402;-81
2022/06/14 01:36:33;;;;;;;5.33;3.20;;;9.90;99.90;;;;;;5017462;28;20679;-82
2022/06/14 01:39:03;;;;;;;9.43;3.40;;;9.90;99.90;;;;;;5022801;28;20225;-83
2022/06/14 01:41:42;;;;;;;8.53;3.30;;;9.80;99.90;;;;;;5016095;28;20948;-82
2022/06/14 01:44:23;;;;;;;9.00;3.20;;;9.50;99.90;;;;;;5015384;28;20205;-82
2022/06/14 01:47:00;;;;;;;8.13;3.23;;;9.80;99.90;;;;;;5028953;28;20241;-82
2022/06/14 01:52:31;;;;;;;11.27;3.70;;;9.70;99.90;;;;;;5046610;28;20308;-80
2022/06/14 01:55:09;;;;;;;6.50;3.17;;;9.70;99.90;;;;;;5043014;28;20240;-80
2022/06/14 01:57:44;;;;;;;5.80;3.43;;;9.70;99.90;;;;;;5037038;28;20263;-81
2022/06/14 02:00:15;;;;;;;10.27;3.57;;;9.70;99.90;;;;;;5033094;28;20197;-79
2022/06/14 02:04:36;;;;;;;7.13;3.83;;;9.60;99.90;;;;;;5013509;28;20241;-81
2022/06/14 02:05:47;;;;;;;7.47;3.57;;;9.60;99.90;;;;;;5031787;28;20276;-82
2022/06/14 02:08:21;;;;;;;7.80;3.60;;;9.60;99.90;;;;;;5023210;28;20258;-80
2022/06/14 02:10:54;;;;;;;8.90;3.83;;;9.50;99.90;;;;;;5025230;28;20212;-80
2022/06/14 02:13:31;;;;;;;7.23;3.30;;;9.60;99.90;;;;;;5035804;28;20190;-79
2022/06/14 02:16:05;;;;;;;9.57;3.20;;;9.60;99.90;;;;;;5016989;28;20202;-80
2022/06/14 02:18:37;;;;;;;6.77;3.37;;;9.60;99.90;;;;;;5034104;28;20220;-81
2022/06/14 02:21:09;;;;;;;6.60;3.63;;;9.60;99.90;;;;;;5030392;28;20565;-80
2022/06/14 02:23:40;;;;;;;9.23;3.67;;;9.60;99.90;;;;;;5038088;28;20202;-81
2022/06/14 02:26:11;;;;;;;5.93;3.30;;;9.60;99.90;;;;;;5015111;28;20221;-80
2022/06/14 02:28:43;;;;;;;6.60;3.30;;;9.50;99.90;;;;;;5029156;28;20248;-80
2022/06/14 02:31:14;;;;;;;8.10;3.67;;;9.50;99.90;;;;;;5020929;28;20259;-81
2022/06/14 02:33:45;;;;;;;11.80;4.13;;;9.50;99.90;;;;;;5010791;28;20210;-81
2022/06/14 02:36:16;;;;;;;11.10;3.50;;;9.50;99.90;;;;;;5020567;28;20225;-82
2022/06/14 02:38:48;;;;;;;8.87;3.63;;;9.50;99.90;;;;;;5042337;28;20244;-81
2022/06/14 02:41:20;;;;;;;10.57;3.43;;;9.50;99.90;;;;;;5038715;28;20237;-81
2022/06/14 02:43:53;;;;;;;8.70;3.57;;;9.50;99.90;;;;;;5022244;28;20225;-82
2022/06/14 02:46:25;;;;;;;6.30;3.63;;;9.40;99.90;;;;;;5033824;28;20222;-81
2022/06/14 02:48:57;;;;;;;9.30;3.63;;;9.40;99.90;;;;;;5036686;28;20467;-81
2022/06/14 02:51:29;;;;;;;9.80;3.90;;;9.40;99.90;;;;;;5036097;28;20209;-82
2022/06/14 02:54:00;;;;;;;8.73;3.33;;;7.30;99.90;;;;;;5023651;28;20233;-81
2022/06/14 02:56:31;;;;;;;5.57;3.53;;;9.30;99.90;;;;;;5023359;28;20308;-82
2022/06/14 02:59:03;;;;;;;7.73;3.70;;;9.30;99.90;;;;;;5027972;28;20217;-82
2022/06/14 03:01:37;;;;;;;10.03;3.80;;;9.30;99.90;;;;;;5024469;28;20233;-81
2022/06/14 03:04:14;;;;;;;15.10;4.50;;;9.30;99.90;;;;;;5017782;28;20213;-81
2022/06/14 03:06:47;;;;;;;9.40;3.80;;;9.30;99.90;;;;;;5030171;28;20212;-82
2022/06/14 03:09:17;;;;;;;7.73;3.97;;;9.20;99.90;;;;;;5016421;28;20270;-82
2022/06/14 03:11:53;;;;;;;10.90;3.73;;;9.20;99.90;;;;;;5014005;28;20291;-81
2022/06/14 03:14:28;;;;;;;9.00;3.90;;;9.20;99.90;;;;;;5003482;28;20210;-82
2022/06/14 03:17:09;;;;;;;8.53;3.93;;;9.20;99.90;;;;;;5019562;28;20232;-83
2022/06/14 03:19:43;;;;;;;7.50;3.80;;;9.20;99.90;;;;;;5015382;28;20209;-84
2022/06/14 03:22:18;;;;;;;7.93;3.70;;;9.10;99.90;;;;;;5013626;28;20235;-84
2022/06/14 03:24:51;;;;;;;7.47;4.00;;;9.10;99.90;;;;;;5026194;28;20208;-84
2022/06/14 03:27:26;;;;;;;11.33;4.23;;;9.10;99.90;;;;;;5009148;28;20308;-84
2022/06/14 03:30:01;;;;;;;9.67;3.60;;;9.10;99.90;;;;;;5019005;28;20210;-83
2022/06/14 03:32:33;;;;;;;8.17;3.57;;;9.10;99.90;;;;;;4996917;28;20226;-84
2022/06/14 03:35:06;;;;;;;4.93;3.47;;;10.80;99.90;;;;;;5034085;28;20202;-82
2022/06/14 03:37:33;;;;;;;8.73;4.50;;;9.10;99.90;;;;;;5019105;28;20276;-83
2022/06/14 03:40:04;;;;;;;7.07;3.50;;;9.10;99.90;;;;;;5025470;28;20214;-83
2022/06/14 03:42:32;;;;;;;13.33;3.97;;;9.10;99.90;;;;;;5030047;28;20252;-83
2022/06/14 03:45:02;;;;;;;7.43;3.93;;;9.10;99.90;;;;;;5049725;28;20221;-82
2022/06/14 03:47:30;;;;;;;7.40;4.27;;;9.10;99.90;;;;;;5022837;28;20206;-83
2022/06/14 03:50:02;;;;;;;7.60;4.20;;;9.10;99.90;;;;;;5033855;28;20210;-82
2022/06/14 03:52:46;;;;;;;8.97;4.70;;;9.10;99.90;;;;;;5025127;28;20241;-85
2022/06/14 03:55:26;;;;;;;12.43;4.00;;;9.10;99.90;;;;;;5018168;28;20217;-83
2022/06/14 03:58:06;;;;;;;10.27;4.70;;;9.20;99.90;;;;;;5015773;28;20223;-82
2022/06/14 04:00:49;;;;;;;9.47;4.33;;;9.30;99.90;;;;;;5016006;28;20217;-83
2022/06/14 04:03:35;;;;;;;8.77;4.17;;;9.30;99.90;;;;;;5015609;28;20318;-83
2022/06/14 04:06:19;;;;;;;9.03;4.27;;;9.40;99.90;;;;;;5015216;28;20217;-83
2022/06/14 04:08:55;;;;;;;9.40;3.90;;;9.40;99.90;;;;;;5014806;28;20267;-83
2022/06/14 04:11:37;;;;;;;9.40;4.60;;;9.40;99.90;;;;;;5009989;28;20236;-83
2022/06/14 04:14:16;;;;;;;10.17;4.60;;;9.50;99.90;;;;;;5022688;28;20920;-83
2022/06/14 04:16:54;;;;;;;10.17;4.40;;;9.60;99.90;;;;;;5015902;28;20224;-83
2022/06/14 04:19:34;;;;;;;10.90;4.50;;;9.60;99.90;;;;;;5014262;28;20594;-83
2022/06/14 04:22:06;;;;;;;7.67;4.40;;;9.70;99.90;;;;;;5032445;28;20275;-83
2022/06/14 04:24:38;;;;;;;7.73;4.20;;;9.70;99.90;;;;;;5021027;28;20221;-83
2022/06/14 04:27:12;;;;;;;6.37;4.00;;;9.80;99.90;;;;;;5007698;28;20222;-82
2022/06/14 04:29:47;;;;;;;8.33;4.50;;;9.90;99.90;;;;;;5014473;28;20311;-83
2022/06/14 04:32:23;;;;;;;6.90;3.83;;;10.00;99.90;;;;;;5032806;28;20232;-83
2022/06/14 04:34:54;;;;;;;8.93;4.67;;;10.10;99.90;;;;;;5016708;28;20209;-82
2022/06/14 04:37:26;;;;;;;8.00;4.80;;;10.20;99.90;;;;;;5032399;28;20703;-84
2022/06/14 04:39:59;;;;;;;9.60;4.77;;;10.30;99.90;;;;;;4999676;28;20269;-84
2022/06/14 04:42:31;;;;;;;11.97;4.90;;;10.40;99.90;;;;;;5038417;28;20230;-83
2022/06/14 04:45:05;;;;;;;11.20;4.77;;;10.60;99.90;;;;;;5016871;28;20221;-83
2022/06/14 04:47:41;;;;;;;9.80;5.07;;;10.70;99.90;;;;;;5016144;28;20264;-84
2022/06/14 04:50:13;;;;;;;9.10;4.33;;;10.70;99.90;;;;;;5016494;28;20212;-85
2022/06/14 04:52:46;;;;;;;8.23;4.13;;;10.80;99.90;;;;;;5023331;28;20225;-84
2022/06/14 04:55:18;;;;;;;13.60;5.33;;;10.90;99.90;;;;;;5025907;28;20237;-85
2022/06/14 04:57:49;;;;;;;10.87;5.00;;;11.00;99.90;;;;;;5031919;28;20312;-85
2022/06/14 05:00:18;;;;;;;11.80;4.80;;;11.20;99.90;;;;;;5028214;28;20217;-84
2022/06/14 05:02:50;;;;;;;15.77;5.27;;;11.20;99.90;;;;;;5018550;28;20241;-85
2022/06/14 05:05:23;;;;;;;9.03;4.83;;;11.30;99.90;;;;;;5021838;28;20306;-85
2022/06/14 05:07:54;;;;;;;9.03;4.40;;;11.50;99.90;;;;;;5014578;28;20206;-83
2022/06/14 05:10:28;;;;;;;10.53;4.37;;;11.70;99.90;;;;;;5010069;28;20450;-85
2022/06/14 05:12:59;;;;;;;10.40;5.00;;;11.90;99.90;;;;;;5037526;28;20285;-83
2022/06/14 05:15:29;;;;;;;13.07;5.13;;;12.00;99.90;;;;;;5017256;28;20225;-85
2022/06/14 05:18:02;;;;;;;15.93;5.47;;;12.30;99.90;;;;;;5022662;28;20306;-85
2022/06/14 05:20:33;;;;;;;9.37;5.20;;;12.50;99.90;;;;;;5046356;28;20214;-85
2022/06/14 05:23:06;;;;;;;10.63;4.80;;;12.80;99.90;;;;;;5040710;28;20210;-85
2022/06/14 05:25:48;;;;;;;12.70;5.47;;;13.00;99.90;;;;;;5019769;28;20505;-86
2022/06/14 05:28:20;;;;;;;14.33;4.63;;;13.30;99.90;;;;;;5017503;28;20229;-85
2022/06/14 05:30:54;;;;;;;12.83;5.13;;;14.10;99.90;;;;;;5023600;28;20212;-86
2022/06/14 05:33:35;;;;;;;12.60;3.90;;;14.20;99.90;;;;;;5014192;28;20199;-86
2022/06/14 05:36:08;;;;;;;12.60;3.57;;;15.90;99.90;;;;;;5015949;28;20202;-84
2022/06/14 05:38:45;;;;;;;10.83;3.20;;;17.70;99.90;;;;;;5037556;28;20234;-86
2022/06/14 05:41:18;;;;;;;10.43;3.30;;;19.40;99.90;;;;;;5021860;28;20375;-85
2022/06/14 05:43:48;;;;;;;5.93;2.73;;;21.10;99.90;;;;;;5016155;28;20594;-86
2022/06/14 05:46:21;;;;;;;7.93;2.87;;;22.60;99.90;;;;;;5015050;28;20675;-86
2022/06/14 05:48:52;;;;;;;9.30;3.03;;;24.10;99.90;;;;;;5009408;28;20216;-87
2022/06/14 05:51:24;;;;;;;11.70;3.03;;;25.20;99.90;;;;;;5025285;28;20236;-87
2022/06/14 05:53:57;;;;;;;7.27;3.00;;;26.10;99.90;;;;;;5029252;28;20212;-85
2022/06/14 05:56:31;;;;;;;7.73;2.70;;;27.30;99.90;;;;;;5031017;28;20591;-87
2022/06/14 05:59:05;;;;;;;8.70;3.10;;;28.40;99.90;;;;;;5016876;28;20233;-86
2022/06/14 06:01:36;;;;;;;10.55;3.45;;;29.50;99.90;;;;;;5016718;28;20237;-86
2022/06/14 06:04:10;;;;;;;8.48;3.20;;;30.20;99.90;;;;;;5027124;28;20249;-84
2022/06/14 06:06:41;;;;;;;7.35;3.08;;;30.70;99.90;;;;;;5015430;28;20555;-84
2022/06/14 06:09:12;;;;;;;11.95;4.60;;;31.00;99.90;;;;;;5015893;28;20228;-87
2022/06/14 06:11:45;;;;;;;9.43;3.13;;;31.30;98.40;;;;;;5016041;28;20634;-83
2022/06/14 06:14:16;;;;;;;8.57;3.20;;;31.40;96.50;;;;;;5042076;28;20212;-85
2022/06/14 06:16:47;;;;;;;8.05;3.35;;;31.90;96.00;;;;;;5027969;28;20240;-84
2022/06/14 06:19:20;;;;;;;17.40;5.47;;;31.10;93.80;;;;;;5023905;28;20228;-89
2022/06/14 06:21:53;;;;;;;7.60;3.40;;;30.70;93.40;;;;;;5025220;28;20232;-84
2022/06/14 06:24:26;;;;;;;10.37;3.30;;;29.70;93.50;;;;;;5034828;28;20223;-84
2022/06/14 06:26:59;;;;;;;12.57;3.53;;;28.60;93.10;;;;;;5051982;28;20283;-83
2022/06/14 06:29:30;;;;;;;8.83;3.43;;;27.70;93.40;;;;;;5051568;28;20225;-83
2022/06/14 06:31:57;;;;;;;9.37;3.20;;;27.10;93.60;;;;;;5017584;28;20268;-83
2022/06/14 06:34:26;;;;;;;10.40;3.23;;;26.50;93.60;;;;;;5016251;28;20212;-84
2022/06/14 06:37:03;;;;;;;7.73;3.13;;;26.90;94.10;;;;;;5019300;28;20282;-84
2022/06/14 06:39:41;;;;;;;8.30;3.03;;;25.30;94.10;;;;;;5034710;28;20561;-83
2022/06/14 06:42:13;;;;;;;13.47;3.23;;;24.80;94.20;;;;;;5001522;28;20244;-88
2022/06/14 06:44:51;;;;;;;4.83;2.60;;;25.80;95.30;;;;;;5017500;28;20580;-85
2022/06/14 06:47:23;;;;;;;7.57;2.85;;;26.90;95.40;;;;;;5024644;28;20197;-84
2022/06/14 06:50:13;;;;;;;7.03;2.78;;;28.50;94.70;;;;;;5017817;28;20202;-84
2022/06/14 06:52:49;;;;;;;9.65;3.53;;;29.80;93.90;;;;;;5016467;28;20332;-85
2022/06/14 06:55:20;;;;;;;12.35;3.33;;;30.90;92.60;;;;;;5033352;28;20628;-85
2022/06/14 06:57:50;;;;;;;8.50;3.08;;;31.90;91.40;;;;;;5032621;28;20213;-86
2022/06/14 07:00:20;;;;;;;11.43;3.40;;;32.70;89.00;;;;;;5014563;28;20237;-86
2022/06/14 07:02:51;;;;;;;8.55;3.50;;;33.40;87.00;;;;;;5000613;28;20237;-86
2022/06/14 07:05:20;;;;;;;8.73;3.05;;;33.80;82.80;;;;;;5014180;28;20213;-85
2022/06/14 07:07:57;;;;;;;10.02;3.90;;;33.80;78.10;;;;;;5014447;28;20716;-84
2022/06/14 07:10:40;;;;;;;8.95;3.20;;;33.50;79.00;;;;;;4969010;28;20540;-90
2022/06/14 07:13:17;;;;;;;10.07;3.17;;;33.30;77.40;;;;;;4892003;28;20209;-88
2022/06/14 07:15:59;;;;;;;10.93;3.20;;;33.20;75.20;;;;;;4869236;28;20607;-88
2022/06/14 07:18:47;;;;;;;9.63;3.55;;;33.10;76.00;;;;;;4872309;28;20294;-88
2022/06/14 07:21:23;;;;;;;7.68;3.00;;;33.40;76.40;;;;;;4869606;28;20230;-89
2022/06/14 07:23:58;;;;;;;9.82;2.90;;;33.20;73.70;;;;;;4892925;28;20213;-90
2022/06/14 07:26:30;;;;;;;10.55;3.05;;;34.10;72.60;;;;;;4897824;28;20341;-89
2022/06/14 07:29:03;;;;;;;11.68;3.10;;;34.40;71.10;;;;;;4891346;28;20225;-89
2022/06/14 07:31:37;;;;;;;10.13;3.20;;;34.50;69.00;;;;;;4893233;28;20229;-88
2022/06/14 07:34:07;;;;;;;11.95;3.20;;;34.80;69.20;;;;;;4901884;28;20206;-88
2022/06/14 07:36:47;;;;;;;8.77;3.35;;;35.00;68.00;;;;;;5038883;28;20254;-85
2022/06/14 07:39:28;;;;;;;6.80;3.00;;;35.20;67.90;;;;;;5047380;28;20220;-83
2022/06/14 07:42:08;;;;;;;5.47;2.60;;;35.60;67.40;;;;;;5027557;28;20225;-85
2022/06/14 07:44:46;;;;;;;8.13;3.00;;;35.80;64.50;;;;;;5027089;28;20221;-85
2022/06/14 07:47:18;;;;;;;10.52;4.07;;;35.50;63.70;;;;;;5045149;28;20202;-84
2022/06/14 07:49:53;;;;;;;8.98;3.67;;;35.10;59.50;;;;;;5013769;28;20202;-84
2022/06/14 07:52:29;;;;;;;10.68;3.72;;;34.60;62.00;;;;;;5018828;28;20599;-84
2022/06/14 07:55:04;;;;;;;8.02;3.53;;;34.40;62.00;;;;;;5031174;28;20227;-83
2022/06/14 07:57:36;;;;;;;7.57;3.92;;;34.40;62.10;;;;;;5025868;28;20220;-83
2022/06/14 08:03:00;;;;;;;10.50;4.15;;;33.90;60.90;;;;;;5013895;28;20261;-84
2022/06/14 08:05:32;;;;;;;7.32;3.70;;;33.90;60.90;;;;;;5029085;28;20216;-84
2022/06/14 08:08:05;;;;;;;8.48;3.42;;;34.00;60.30;;;;;;5031345;28;20228;-84
2022/06/14 08:10:37;;;;;;;10.50;3.70;;;34.00;59.50;;;;;;5035055;28;20201;-84
2022/06/14 08:13:08;;;;;;;8.93;4.15;;;34.00;59.90;;;;;;5018942;28;20286;-84
2022/06/14 08:15:38;;;;;;;8.05;4.10;;;34.10;59.40;;;;;;5029003;28;20216;-84
2022/06/14 08:18:10;;;;;;;10.52;3.88;;;33.90;58.90;;;;;;5025148;28;20214;-84
2022/06/14 08:20:43;;;;;;;8.80;3.55;;;33.80;59.60;;;;;;5026666;28;20297;-84
2022/06/14 08:23:16;;;;;;;9.88;3.67;;;33.10;58.80;;;;;;5021963;28;20228;-85
2022/06/14 08:25:51;;;;;;;11.68;3.90;;;32.20;59.00;;;;;;5024116;28;20220;-84
2022/06/14 08:28:24;;;;;;;6.63;3.50;;;31.30;60.00;;;;;;5038374;28;20377;-84
2022/06/14 08:30:57;;;;;;;10.57;4.40;;;31.20;62.50;;;;;;5017472;28;20205;-85
2022/06/14 08:33:36;;;;;;;12.27;4.88;;;31.20;61.70;;;;;;5037664;28;20209;-82
2022/06/14 08:36:08;;;;;;;10.48;4.93;;;31.00;61.20;;;;;;5030379;28;20333;-84
2022/06/14 08:38:42;;;;;;;9.70;4.53;;;30.50;61.30;;;;;;5011680;28;20271;-84
2022/06/14 08:41:28;;;;;;;10.25;4.10;;;30.10;61.50;;;;;;5010357;28;20237;-84
2022/06/14 08:43:59;;;;;;;9.67;4.40;;;29.40;61.60;;;;;;5032060;28;20229;-84
2022/06/14 08:46:38;;;;;;;10.10;4.57;;;28.50;61.70;;;;;;5015997;28;20225;-84
2022/06/14 08:49:11;;;;;;;9.18;4.35;;;28.10;63.70;;;;;;5014858;28;20205;-85
2022/06/14 08:52:03;;;;;;;9.27;4.82;;;28.30;65.00;;;;;;5034543;28;20237;-84
2022/06/14 08:55:00;;;;;;;7.75;4.43;;;28.80;65.60;;;;;;5036902;28;20205;-84
2022/06/14 08:57:48;;;;;;;8.70;4.80;;;29.70;64.90;;;;;;5017989;28;20221;-84
2022/06/14 09:00:39;;;;;;;7.30;4.60;;;30.50;64.00;;;;;;5022377;28;20215;-82
2022/06/14 09:03:35;;;;;;;7.97;4.22;;;31.00;63.60;;;;;;5027696;28;20220;-82
2022/06/14 09:06:15;;;;;;;11.57;5.10;;;31.60;63.40;;;;;;5036451;28;20209;-81
2022/06/14 09:09:33;;;;;;;15.20;5.90;;;32.30;62.00;;;;;;5037967;28;20277;-82
2022/06/14 09:12:25;;;;;;;10.90;4.88;;;32.70;62.30;;;;;;5026237;28;20243;-84
2022/06/14 09:15:22;;;;;;;13.27;4.75;;;32.60;60.00;;;;;;5016420;28;20213;-83
2022/06/14 09:18:11;;;;;;;12.73;5.30;;;31.90;58.80;;;;;;5030785;28;20580;-83
2022/06/14 09:20:42;;;;;;;14.07;4.40;;;30.40;59.00;;;;;;5016888;28;20593;-82
2022/06/14 09:23:34;;;;;;;13.75;4.82;;;29.50;60.70;;;;;;5005207;28;20218;-83
2022/06/14 09:26:30;;;;;;;12.93;5.33;;;28.80;62.10;;;;;;5008504;28;20219;-83
2022/06/14 09:29:30;;;;;;;16.30;5.43;;;28.10;62.10;;;;;;5009202;28;20329;-83
2022/06/14 09:36:00;;;;;;;8.80;4.75;;;26.60;64.00;;;;;;5021353;28;20257;-82
2022/06/14 09:38:59;;;;;;;13.90;5.43;;;26.70;66.10;;;;;;5010171;28;20674;-83
2022/06/14 09:41:43;;;;;;;9.65;4.93;;;27.30;66.00;;;;;;5017691;28;20249;-83
2022/06/14 09:44:45;;;;;;;13.38;5.28;;;27.70;65.00;;;;;;5020037;28;20248;-82
2022/06/14 09:47:45;;;;;;;11.63;5.18;;;28.10;64.60;;;;;;5027135;28;20196;-83
2022/06/14 09:50:36;;;;;;;12.52;5.40;;;28.60;64.60;;;;;;5033257;28;20270;-81
2022/06/14 09:53:30;;;;;;;11.05;5.35;;;29.00;62.50;;;;;;5039508;28;20200;-81
2022/06/14 09:56:20;;;;;;;30.10;8.98;;;29.10;62.90;;;;;;5038321;28;20248;-81
2022/06/14 09:59:15;;;;;;;12.32;5.00;;;29.00;62.30;;;;;;5024267;28;20209;-81
2022/06/14 10:01:50;;;;;;;10.60;5.00;;;28.90;62.60;;;;;;5010059;28;20229;-83
2022/06/14 10:04:41;;;;;;;29.90;8.53;;;28.70;62.40;;;;;;5021650;28;20742;-83
2022/06/14 10:07:31;;;;;;;13.77;5.40;;;28.00;62.70;;;;;;5014189;28;20311;-82
2022/06/14 10:10:18;;;;;;;10.83;5.30;;;27.20;63.00;;;;;;5024741;28;20215;-83
2022/06/14 10:13:12;;;;;;;9.37;5.13;;;26.60;63.90;;;;;;5011970;28;20260;-82
2022/06/14 10:15:50;;;;;;;9.13;5.10;;;26.40;65.00;;;;;;5029452;28;20212;-82
2022/06/14 10:18:37;;;;;;;13.70;6.97;;;26.10;65.30;;;;;;5018790;28;20220;-82
2022/06/14 10:21:08;;;;;;;11.00;6.60;;;25.50;65.30;;;;;;5033452;28;20240;-81
2022/06/14 10:23:47;;;;;;;15.83;7.20;;;24.80;66.30;;;;;;5016943;28;20222;-86
2022/06/14 10:29:32;;;;;;;13.70;6.90;;;24.30;68.40;;;;;;5027419;28;20200;-83
2022/06/14 10:32:30;;;;;;;15.30;6.83;;;24.10;68.20;;;;;;5031777;28;20315;-83
2022/06/14 10:35:06;;;;;;;15.97;6.90;;;24.00;69.00;;;;;;5029787;28;20203;-85
2022/06/14 10:37:47;;;;;;;12.30;6.30;;;23.70;69.40;;;;;;5011034;28;20221;-83
2022/06/14 10:40:39;;;;;;;12.60;5.47;;;23.30;68.80;;;;;;5031438;28;20251;-83
2022/06/14 10:43:13;;;;;;;10.93;5.80;;;23.00;69.30;;;;;;5041833;28;20218;-83
2022/06/14 10:45:47;;;;;;;13.03;5.47;;;23.00;70.00;;;;;;5027545;28;20225;-83
2022/06/14 10:48:51;;;;;;;12.60;5.43;;;23.00;70.70;;;;;;5040453;28;20229;-83
2022/06/14 10:51:34;;;;;;;7.97;4.53;;;23.00;70.60;;;;;;5026469;28;20285;-81
2022/06/14 10:54:09;;;;;;;12.87;5.17;;;22.80;71.00;;;;;;5038209;28;20664;-84
2022/06/14 10:57:05;;;;;;;12.53;5.57;;;22.70;71.50;;;;;;5023255;28;20391;-82
2022/06/14 11:00:02;;;;;;;10.53;5.37;;;22.70;71.50;;;;;;5031476;28;20199;-84
2022/06/14 11:02:50;;;;;;;12.20;5.87;;;22.60;72.30;;;;;;5045930;28;20224;-83
2022/06/14 11:05:29;;;;;;;15.20;6.53;;;22.70;72.20;;;;;;5037728;28;20251;-83
2022/06/14 11:08:20;;;;;;;14.40;6.23;;;22.60;72.90;;;;;;5046734;28;20296;-83
2022/06/14 11:10:58;;;;;;;13.70;6.87;;;22.30;71.50;;;;;;5028884;28;20207;-83
2022/06/14 11:13:32;;;;;;;14.80;5.97;;;22.30;72.10;;;;;;5030204;28;20183;-82
2022/06/14 11:16:07;;;;;;;13.10;5.43;;;22.30;72.60;;;;;;5047975;28;20206;-83
2022/06/14 11:19:03;;;;;;;11.20;5.40;;;22.40;72.60;;;;;;5046381;28;20204;-83
2022/06/14 11:21:54;;;;;;;12.10;5.27;;;22.50;71.90;;;;;;5038095;28;20624;-84
2022/06/14 11:24:28;;;;;;;12.17;5.23;;;22.60;72.60;;;;;;5009397;28;20655;-84
2022/06/14 11:27:03;;;;;;;9.50;5.27;;;22.60;72.50;;;;;;5008542;28;20213;-84
2022/06/14 11:29:45;;;;;;;14.07;5.27;;;22.70;72.00;;;;;;5032799;28;20215;-85
2022/06/14 11:32:19;;;;;;;9.67;4.93;;;21.30;70.40;;;;;;5008338;28;20237;-83
2022/06/14 11:35:01;;;;;;;11.20;5.03;;;22.70;71.60;;;;;;5014499;28;20600;-82
2022/06/14 11:37:40;;;;;;;12.87;5.00;;;22.60;71.10;;;;;;5048498;28;20250;-82
2022/06/14 11:40:13;;;;;;;11.47;5.07;;;22.70;71.70;;;;;;5048141;28;20222;-83
2022/06/14 11:42:58;;;;;;;11.93;4.93;;;22.90;71.90;;;;;;5056781;28;20255;-83
2022/06/14 11:45:42;;;;;;;9.93;4.87;;;23.10;72.00;;;;;;5028999;28;20211;-82
2022/06/14 11:48:20;;;;;;;16.63;4.80;;;23.40;71.20;;;;;;5046726;28;20205;-81
2022/06/14 11:50:55;;;;;;;10.03;4.50;;;22.80;70.70;;;;;;5048697;28;20276;-81
2022/06/14 11:53:58;;;;;;;10.00;4.03;;;23.70;73.10;;;;;;5031651;28;20213;-83
2022/06/14 11:56:39;;;;;;;9.67;4.20;;;23.80;71.40;;;;;;5030419;28;20613;-83
2022/06/14 11:59:29;;;;;;;11.10;3.83;;;23.90;71.40;;;;;;5033923;28;20645;-84
2022/06/14 12:02:12;;;;;;;9.53;3.73;;;23.90;70.90;;;;;;5016182;28;20288;-83
2022/06/14 12:04:48;;;;;;;9.43;3.97;;;24.10;71.10;;;;;;5037969;28;20233;-85
2022/06/14 12:07:22;;;;;;;12.20;3.90;;;24.30;71.80;;;;;;5057566;28;20193;-83
2022/06/14 12:10:16;;;;;;;10.47;3.63;;;24.40;71.30;;;;;;5035155;28;20223;-83
2022/06/14 12:12:56;;;;;;;7.63;3.10;;;24.60;70.60;;;;;;5015915;28;20262;-83
2022/06/14 12:15:34;;;;;;;8.27;3.10;;;24.60;70.40;;;;;;4997480;28;20245;-84
2022/06/14 12:18:04;;;;;;;8.13;3.10;;;24.40;71.10;;;;;;5012415;28;20227;-85
2022/06/14 12:20:38;;;;;;;13.63;3.70;;;24.40;70.80;;;;;;5035390;28;20229;-86
2022/06/14 12:23:11;;;;;;;9.13;3.50;;;24.20;70.60;;;;;;5019234;28;20221;-85
2022/06/14 12:28:40;;;;;;;7.57;3.23;;;24.50;71.30;;;;;;5034307;28;21059;-84
2022/06/14 12:31:15;;;;;;;9.17;2.90;;;24.60;70.70;;;;;;5035787;28;20408;-85
2022/06/14 12:33:47;;;;;;;8.93;2.83;;;24.70;70.20;;;;;;5017770;28;20590;-85
2022/06/14 12:36:26;;;;;;;8.93;3.13;;;24.60;70.50;;;;;;5020537;28;20209;-84
2022/06/14 12:38:59;;;;;;;9.80;3.10;;;24.70;70.80;;;;;;5026846;28;20228;-85
2022/06/14 12:41:31;;;;;;;7.30;3.00;;;24.90;69.90;;;;;;5004068;28;20230;-85
2022/06/14 12:44:14;;;;;;;8.90;3.40;;;24.90;68.90;;;;;;5027036;28;20228;-83
2022/06/14 12:46:46;;;;;;;8.70;3.20;;;24.90;69.90;;;;;;5047413;28;20412;-81
2022/06/14 12:49:19;;;;;;;5.63;2.50;;;25.00;70.20;;;;;;5044916;28;20282;-81
2022/06/14 12:51:52;;;;;;;8.40;2.90;;;25.20;68.30;;;;;;5028848;28;20229;-81
2022/06/14 12:54:25;;;;;;;6.33;2.90;;;25.30;68.60;;;;;;5050497;28;20292;-82
2022/06/14 12:56:59;;;;;;;9.47;3.03;;;25.40;69.30;;;;;;5025770;28;20262;-82
2022/06/14 12:59:38;;;;;;;7.57;3.00;;;25.60;68.30;;;;;;5022603;28;20625;-82
2022/06/14 13:02:15;;;;;;;8.43;2.90;;;25.40;67.30;;;;;;5010677;28;21846;-82
2022/06/14 13:04:47;;;;;;;7.40;2.60;;;25.50;68.50;;;;;;5014114;28;20244;-82
2022/06/14 13:07:44;;;;;;;5.70;2.80;;;25.60;68.00;;;;;;5013108;28;20210;-81
2022/06/14 13:10:34;;;;;;;7.27;3.13;;;25.60;68.30;;;;;;5021001;28;20308;-82
2022/06/14 13:13:41;;;;;;;7.60;2.87;;;25.70;68.60;;;;;;5021101;28;20674;-83
2022/06/14 13:16:23;;;;;;;8.30;2.70;;;26.00;68.00;;;;;;5008988;28;20216;-82
2022/06/14 13:19:00;;;;;;;7.83;2.80;;;26.10;67.10;;;;;;5018609;28;20213;-81
2022/06/14 13:21:45;;;;;;;3.70;2.23;;;26.20;66.50;;;;;;5010533;28;20287;-82
2022/06/14 13:24:22;;;;;;;5.83;2.60;;;26.30;66.50;;;;;;5031165;28;20224;-80
2022/06/14 13:27:00;;;;;;;8.33;2.67;;;26.40;65.90;;;;;;5014108;28;20233;-82
2022/06/14 13:29:40;;;;;;;6.40;2.57;;;26.40;65.40;;;;;;5019354;28;20317;-81
2022/06/14 13:32:41;;;;;;;6.17;2.80;;;26.30;65.50;;;;;;5019095;28;20243;-81
2022/06/14 13:35:31;;;;;;;6.90;2.60;;;26.40;66.80;;;;;;5013069;28;20238;-82
2022/06/14 13:38:03;;;;;;;6.63;3.00;;;26.40;66.30;;;;;;5035782;28;20219;-82
2022/06/14 13:40:37;;;;;;;4.27;2.60;;;26.30;66.40;;;;;;5042030;28;20298;-80
2022/06/14 13:43:21;;;;;;;9.97;2.93;;;26.30;66.40;;;;;;5037844;28;20292;-82
2022/06/14 13:45:56;;;;;;;7.07;2.80;;;26.20;65.30;;;;;;5015987;28;20312;-80
2022/06/14 13:48:32;;;;;;;12.27;2.80;;;26.10;66.10;;;;;;5040298;28;20666;-81
2022/06/14 13:51:14;;;;;;;9.63;3.00;;;26.10;66.20;;;;;;5012851;28;20308;-88
2022/06/14 13:53:51;;;;;;;9.23;2.60;;;26.10;65.70;;;;;;5048072;28;20227;-81